Terminal Aerodrome Forecast
Issued by NWS

Home | Current Version | Previous Version | Text Only | Print | Product List | Glossary On
Versions: 1 2 3 4 5 6 7 8 9 10 11 12 13 14 15
083
FTUS43 KAPX 262336
TAFTVC
TAF
KTVC 262336Z 2700/2724 24007KT P6SM BKN250
     FM270300 27006KT P6SM BKN120
     FM270600 34005KT P6SM VCSH BKN045
     FM270700 34006KT P6SM -SHRA BKN025
     FM271000 34005KT P6SM VCSH BKN025
     FM271300 34006KT P6SM SCT035
     FM271500 33005KT P6SM SCT150
     FM272100 34006KT P6SM -SHRA BKN035=

USA.gov is the U.S. government's official web portal to all federal, state and local government web resources and services.